AIC2439 VIDP-VABB
Flight info
| Callsign | AIC2439 |
|---|---|
| Flight time | 1h 30m |
| Altitude | 40000 |
| Route | DUDUM7G DUDUM Q2 AKTIV IGBAN2A |
| Aircraft | A359/H-SDE2E3GHIJ3J4J5LM1ORWXY/LB1D1 |
Departure
| Time | 2026-05-07 14:41 |
|---|---|
| Airport | Indira Gandhi International Airport (VIDP) |
Arrival
| Time | 2026-05-07 16:11 |
|---|---|
| Airport | Chhatrapati Shivaji Maharaj International Airport (VABB) |
| Time | Latitude | Longitude | Altitude | Speed | Heading |
|---|---|---|---|---|---|
| 2026-05-07 14:15 | 28.55180 | 77.08376 | 757 ft | 0 kts | 328° |
| 2026-05-07 14:27 | 28.55166 | 77.08387 | 752 ft | 4 kts | 320° |
| 2026-05-07 14:27 | 28.55147 | 77.08408 | 752 ft | 4 kts | 302° |
| 2026-05-07 14:27 | 28.55137 | 77.08436 | 752 ft | 4 kts | 278° |
| 2026-05-07 14:27 | 28.55138 | 77.08465 | 752 ft | 4 kts | 251° |
| 2026-05-07 14:28 | 28.55143 | 77.08481 | 752 ft | 0 kts | 240° |
| 2026-05-07 14:33 | 28.55143 | 77.08480 | 752 ft | 1 kts | 240° |
| 2026-05-07 14:33 | 28.55119 | 77.08432 | 752 ft | 9 kts | 240° |
| 2026-05-07 14:34 | 28.55080 | 77.08357 | 753 ft | 12 kts | 237° |
| 2026-05-07 14:34 | 28.55003 | 77.08313 | 753 ft | 14 kts | 193° |
| 2026-05-07 14:34 | 28.54930 | 77.08256 | 752 ft | 13 kts | 260° |
| 2026-05-07 14:34 | 28.54955 | 77.08146 | 755 ft | 15 kts | 283° |
| 2026-05-07 14:35 | 28.54981 | 77.08020 | 754 ft | 18 kts | 283° |
| 2026-05-07 14:35 | 28.55015 | 77.07878 | 753 ft | 20 kts | 283° |
| 2026-05-07 14:35 | 28.55029 | 77.07817 | 753 ft | 0 kts | 284° |
| 2026-05-07 14:37 | 28.55048 | 77.07731 | 756 ft | 11 kts | 284° |
| 2026-05-07 14:37 | 28.55071 | 77.07633 | 753 ft | 14 kts | 285° |
| 2026-05-07 14:38 | 28.55099 | 77.07513 | 758 ft | 17 kts | 284° |
| 2026-05-07 14:38 | 28.55132 | 77.07370 | 753 ft | 20 kts | 285° |
| 2026-05-07 14:38 | 28.55152 | 77.07270 | 754 ft | 10 kts | 266° |
| 2026-05-07 14:38 | 28.55100 | 77.07228 | 758 ft | 10 kts | 200° |
| 2026-05-07 14:39 | 28.55089 | 77.07226 | 753 ft | 0 kts | 187° |
| 2026-05-07 14:39 | 28.55051 | 77.07220 | 753 ft | 8 kts | 187° |
| 2026-05-07 14:39 | 28.54986 | 77.07206 | 754 ft | 11 kts | 193° |
| 2026-05-07 14:40 | 28.54933 | 77.07210 | 752 ft | 5 kts | 131° |
| 2026-05-07 14:40 | 28.54922 | 77.07242 | 756 ft | 0 kts | 103° |
| 2026-05-07 14:40 | 28.54878 | 77.07449 | 760 ft | 64 kts | 104° |
| 2026-05-07 14:41 | 28.54716 | 77.08202 | 756 ft | 130 kts | 103° |
| 2026-05-07 14:41 | 28.54477 | 77.09335 | 1177 ft | 152 kts | 103° |
| 2026-05-07 14:41 | 28.54345 | 77.10520 | 1797 ft | 153 kts | 89° |
| 2026-05-07 14:41 | 28.54488 | 77.11814 | 1970 ft | 181 kts | 84° |
| 2026-05-07 14:42 | 28.54044 | 77.13141 | 2318 ft | 195 kts | 137° |
| 2026-05-07 14:42 | 28.52760 | 77.13803 | 2589 ft | 219 kts | 173° |
| 2026-05-07 14:42 | 28.51228 | 77.13343 | 2821 ft | 244 kts | 211° |
| 2026-05-07 14:42 | 28.49812 | 77.12173 | 3079 ft | 259 kts | 211° |
| 2026-05-07 14:43 | 28.48297 | 77.11000 | 3458 ft | 267 kts | 214° |
| 2026-05-07 14:43 | 28.46817 | 77.09693 | 4030 ft | 273 kts | 216° |
| 2026-05-07 14:43 | 28.45318 | 77.08355 | 4872 ft | 274 kts | 216° |
| 2026-05-07 14:43 | 28.43812 | 77.07025 | 5786 ft | 274 kts | 218° |
| 2026-05-07 14:44 | 28.42303 | 77.05704 | 6719 ft | 274 kts | 219° |
| 2026-05-07 14:44 | 28.40782 | 77.04380 | 7544 ft | 278 kts | 219° |
| 2026-05-07 14:44 | 28.39229 | 77.03031 | 8364 ft | 284 kts | 220° |
| 2026-05-07 14:44 | 28.37649 | 77.01661 | 9264 ft | 287 kts | 221° |
| 2026-05-07 14:45 | 28.36048 | 77.00276 | 10131 ft | 293 kts | 221° |
| 2026-05-07 14:45 | 28.34380 | 76.98830 | 10567 ft | 313 kts | 221° |
| 2026-05-07 14:45 | 28.32587 | 76.97275 | 10921 ft | 335 kts | 221° |
| 2026-05-07 14:45 | 28.30684 | 76.95630 | 11288 ft | 352 kts | 220° |
| 2026-05-07 14:46 | 28.28728 | 76.93946 | 11840 ft | 362 kts | 220° |
| 2026-05-07 14:46 | 28.26706 | 76.92210 | 12518 ft | 368 kts | 220° |
| 2026-05-07 14:46 | 28.24653 | 76.90447 | 13247 ft | 372 kts | 220° |
| 2026-05-07 14:46 | 28.22576 | 76.88662 | 13933 ft | 377 kts | 220° |
| 2026-05-07 14:47 | 28.20475 | 76.86857 | 14598 ft | 380 kts | 221° |
| 2026-05-07 14:47 | 28.18349 | 76.85033 | 15211 ft | 386 kts | 222° |
| 2026-05-07 14:47 | 28.16201 | 76.83187 | 15853 ft | 390 kts | 222° |
| 2026-05-07 14:47 | 28.14032 | 76.81324 | 16536 ft | 393 kts | 221° |
| 2026-05-07 14:48 | 28.11844 | 76.79446 | 17244 ft | 396 kts | 221° |
| 2026-05-07 14:48 | 28.09640 | 76.77556 | 17964 ft | 399 kts | 221° |
| 2026-05-07 14:48 | 28.07415 | 76.75648 | 18603 ft | 404 kts | 221° |
| 2026-05-07 14:48 | 28.05165 | 76.73720 | 19194 ft | 408 kts | 221° |
| 2026-05-07 14:49 | 28.02890 | 76.71772 | 19803 ft | 412 kts | 221° |
| 2026-05-07 14:49 | 28.00591 | 76.69805 | 20410 ft | 415 kts | 221° |
| 2026-05-07 14:49 | 27.98284 | 76.67833 | 21080 ft | 418 kts | 222° |
| 2026-05-07 14:49 | 27.95952 | 76.65838 | 21668 ft | 423 kts | 222° |
| 2026-05-07 14:50 | 27.93591 | 76.63819 | 22246 ft | 428 kts | 222° |
| 2026-05-07 14:50 | 27.91200 | 76.61777 | 22850 ft | 433 kts | 222° |
| 2026-05-07 14:50 | 27.88791 | 76.59720 | 23444 ft | 437 kts | 222° |
| 2026-05-07 14:50 | 27.86345 | 76.57634 | 23948 ft | 442 kts | 222° |
| 2026-05-07 14:51 | 27.83880 | 76.55533 | 24477 ft | 446 kts | 222° |
| 2026-05-07 14:51 | 27.81396 | 76.53414 | 25015 ft | 450 kts | 222° |
| 2026-05-07 14:51 | 27.78885 | 76.51283 | 25522 ft | 454 kts | 221° |
| 2026-05-07 14:51 | 27.76284 | 76.49213 | 25981 ft | 462 kts | 218° |
| 2026-05-07 14:52 | 27.73588 | 76.47191 | 26358 ft | 469 kts | 217° |
| 2026-05-07 14:52 | 27.70840 | 76.45180 | 26920 ft | 472 kts | 217° |
| 2026-05-07 14:52 | 27.68077 | 76.43161 | 27467 ft | 474 kts | 217° |
| 2026-05-07 14:52 | 27.65306 | 76.41122 | 27994 ft | 477 kts | 217° |
| 2026-05-07 14:53 | 27.62525 | 76.39058 | 28506 ft | 480 kts | 217° |
| 2026-05-07 14:53 | 27.59729 | 76.36968 | 29008 ft | 484 kts | 217° |
| 2026-05-07 14:53 | 27.56916 | 76.34858 | 29504 ft | 487 kts | 217° |
| 2026-05-07 14:53 | 27.54087 | 76.32733 | 29986 ft | 490 kts | 217° |
| 2026-05-07 14:54 | 27.51239 | 76.30596 | 30358 ft | 494 kts | 217° |
| 2026-05-07 14:54 | 27.48328 | 76.28509 | 30736 ft | 498 kts | 215° |
| 2026-05-07 14:54 | 27.45355 | 76.26475 | 31078 ft | 502 kts | 214° |
| 2026-05-07 14:54 | 27.42351 | 76.24458 | 31519 ft | 503 kts | 214° |
| 2026-05-07 14:55 | 27.39339 | 76.22436 | 31835 ft | 506 kts | 214° |
| 2026-05-07 14:55 | 27.36312 | 76.20394 | 32168 ft | 508 kts | 216° |
| 2026-05-07 14:55 | 27.33282 | 76.18338 | 32501 ft | 510 kts | 216° |
| 2026-05-07 14:55 | 27.30247 | 76.16267 | 32786 ft | 512 kts | 217° |
| 2026-05-07 14:56 | 27.27203 | 76.14182 | 33167 ft | 512 kts | 217° |
| 2026-05-07 14:56 | 27.24168 | 76.12108 | 33784 ft | 508 kts | 217° |
| 2026-05-07 14:56 | 27.21161 | 76.10057 | 34265 ft | 505 kts | 218° |
| 2026-05-07 14:56 | 27.18150 | 76.08002 | 34544 ft | 506 kts | 218° |
| 2026-05-07 14:57 | 27.15140 | 76.05947 | 34837 ft | 507 kts | 218° |
| 2026-05-07 14:57 | 27.12130 | 76.03895 | 35189 ft | 506 kts | 218° |
| 2026-05-07 14:57 | 27.09125 | 76.01847 | 35497 ft | 506 kts | 218° |
| 2026-05-07 14:57 | 27.06122 | 75.99801 | 35728 ft | 506 kts | 218° |
| 2026-05-07 14:58 | 27.03107 | 75.97748 | 35843 ft | 506 kts | 218° |
| 2026-05-07 14:58 | 27.00097 | 75.95701 | 35845 ft | 505 kts | 218° |
| 2026-05-07 14:58 | 26.94082 | 75.91614 | 35850 ft | 506 kts | 218° |
| 2026-05-07 14:59 | 26.88066 | 75.87532 | 35859 ft | 506 kts | 218° |
| 2026-05-07 14:59 | 26.81951 | 75.83682 | 35859 ft | 514 kts | 210° |
| 2026-05-07 15:00 | 26.75296 | 75.80658 | 35904 ft | 518 kts | 208° |
| 2026-05-07 15:00 | 26.71929 | 75.79225 | 36233 ft | 517 kts | 208° |
| 2026-05-07 15:00 | 26.68569 | 75.77818 | 36542 ft | 515 kts | 208° |
| 2026-05-07 15:01 | 26.65209 | 75.76413 | 36854 ft | 515 kts | 208° |
| 2026-05-07 15:01 | 26.61857 | 75.75008 | 37154 ft | 514 kts | 208° |
| 2026-05-07 15:01 | 26.58511 | 75.73602 | 37488 ft | 513 kts | 208° |
| 2026-05-07 15:01 | 26.55176 | 75.72196 | 37798 ft | 512 kts | 208° |
| 2026-05-07 15:02 | 26.51848 | 75.70791 | 38099 ft | 511 kts | 208° |
| 2026-05-07 15:02 | 26.48528 | 75.69388 | 38393 ft | 510 kts | 208° |
| 2026-05-07 15:02 | 26.45212 | 75.67987 | 38652 ft | 509 kts | 208° |
| 2026-05-07 15:02 | 26.42974 | 75.67041 | 38797 ft | 508 kts | 208° |
| 2026-05-07 15:03 | 26.38605 | 75.65199 | 39173 ft | 506 kts | 208° |
| 2026-05-07 15:03 | 26.35321 | 75.63816 | 39393 ft | 505 kts | 208° |
| 2026-05-07 15:03 | 26.32035 | 75.62431 | 39623 ft | 504 kts | 208° |
| 2026-05-07 15:03 | 26.28758 | 75.61050 | 39780 ft | 504 kts | 208° |
| 2026-05-07 15:04 | 26.22204 | 75.58292 | 39807 ft | 503 kts | 208° |
| 2026-05-07 15:04 | 26.15656 | 75.55541 | 39806 ft | 503 kts | 208° |
| 2026-05-07 15:05 | 26.09114 | 75.52796 | 39802 ft | 502 kts | 208° |
| 2026-05-07 15:05 | 26.02587 | 75.50061 | 39810 ft | 501 kts | 208° |
| 2026-05-07 15:06 | 25.96067 | 75.47331 | 39809 ft | 501 kts | 208° |
| 2026-05-07 15:06 | 25.89543 | 75.44604 | 39804 ft | 501 kts | 208° |
| 2026-05-07 15:07 | 25.83015 | 75.41892 | 39800 ft | 501 kts | 207° |
| 2026-05-07 15:07 | 25.76485 | 75.39208 | 39801 ft | 499 kts | 207° |
| 2026-05-07 15:08 | 25.70030 | 75.36559 | 39805 ft | 498 kts | 207° |
| 2026-05-07 15:08 | 25.63537 | 75.33892 | 39800 ft | 498 kts | 207° |
| 2026-05-07 15:09 | 25.57048 | 75.31227 | 39806 ft | 497 kts | 207° |
| 2026-05-07 15:09 | 25.50555 | 75.28564 | 39793 ft | 497 kts | 207° |
| 2026-05-07 15:10 | 25.44073 | 75.25911 | 39810 ft | 496 kts | 207° |
| 2026-05-07 15:10 | 25.37604 | 75.23265 | 39816 ft | 495 kts | 207° |
| 2026-05-07 15:11 | 25.31137 | 75.20622 | 39815 ft | 495 kts | 207° |
| 2026-05-07 15:11 | 25.24675 | 75.17985 | 39821 ft | 495 kts | 207° |
| 2026-05-07 15:12 | 25.18210 | 75.15349 | 39795 ft | 495 kts | 207° |
| 2026-05-07 15:12 | 25.11749 | 75.12718 | 39821 ft | 494 kts | 207° |
| 2026-05-07 15:13 | 25.05297 | 75.10093 | 39827 ft | 495 kts | 207° |
| 2026-05-07 15:13 | 24.98839 | 75.07470 | 39836 ft | 494 kts | 207° |
| 2026-05-07 15:14 | 24.92389 | 75.04852 | 39825 ft | 494 kts | 206° |
| 2026-05-07 15:14 | 24.85933 | 75.02234 | 39822 ft | 494 kts | 206° |
| 2026-05-07 15:15 | 24.79488 | 74.99626 | 39832 ft | 493 kts | 206° |
| 2026-05-07 15:15 | 24.73051 | 74.97022 | 39836 ft | 493 kts | 206° |
| 2026-05-07 15:16 | 24.66613 | 74.94421 | 39833 ft | 493 kts | 206° |
| 2026-05-07 15:16 | 24.60175 | 74.91823 | 39839 ft | 493 kts | 206° |
| 2026-05-07 15:17 | 24.53781 | 74.89250 | 39837 ft | 493 kts | 206° |
| 2026-05-07 15:17 | 24.47339 | 74.86658 | 39841 ft | 493 kts | 206° |
| 2026-05-07 15:18 | 24.40903 | 74.84068 | 39841 ft | 493 kts | 206° |
| 2026-05-07 15:18 | 24.34466 | 74.81482 | 39839 ft | 493 kts | 206° |
| 2026-05-07 15:19 | 24.28021 | 74.78897 | 39840 ft | 493 kts | 206° |
| 2026-05-07 15:19 | 24.21583 | 74.76317 | 39838 ft | 493 kts | 206° |
| 2026-05-07 15:20 | 24.15150 | 74.73743 | 39842 ft | 492 kts | 206° |
| 2026-05-07 15:20 | 24.08716 | 74.71170 | 39848 ft | 492 kts | 206° |
| 2026-05-07 15:21 | 24.03369 | 74.69035 | 39844 ft | 492 kts | 206° |
| 2026-05-07 15:21 | 23.96937 | 74.66464 | 39851 ft | 492 kts | 206° |
| 2026-05-07 15:22 | 23.90510 | 74.63885 | 39829 ft | 492 kts | 206° |
| 2026-05-07 15:22 | 23.84084 | 74.61308 | 39840 ft | 492 kts | 206° |
| 2026-05-07 15:23 | 23.77658 | 74.58739 | 39839 ft | 492 kts | 206° |
| 2026-05-07 15:23 | 23.71237 | 74.56175 | 39837 ft | 492 kts | 206° |
| 2026-05-07 15:24 | 23.64811 | 74.53610 | 39836 ft | 492 kts | 206° |
| 2026-05-07 15:24 | 23.58388 | 74.51050 | 39826 ft | 491 kts | 206° |
| 2026-05-07 15:25 | 23.51976 | 74.48498 | 39824 ft | 490 kts | 206° |
| 2026-05-07 15:25 | 23.45568 | 74.45949 | 39823 ft | 490 kts | 206° |
| 2026-05-07 15:26 | 23.39160 | 74.43402 | 39822 ft | 490 kts | 206° |
| 2026-05-07 15:26 | 23.32754 | 74.40859 | 39822 ft | 490 kts | 206° |
| 2026-05-07 15:27 | 23.26388 | 74.38335 | 39806 ft | 490 kts | 205° |
| 2026-05-07 15:27 | 23.19987 | 74.35799 | 39820 ft | 489 kts | 205° |
| 2026-05-07 15:28 | 23.13595 | 74.33272 | 39813 ft | 489 kts | 205° |
| 2026-05-07 15:28 | 23.07195 | 74.30745 | 39812 ft | 489 kts | 205° |
| 2026-05-07 15:29 | 23.00800 | 74.28216 | 39813 ft | 489 kts | 205° |
| 2026-05-07 15:29 | 22.94403 | 74.25690 | 39800 ft | 489 kts | 205° |
| 2026-05-07 15:30 | 22.88008 | 74.23170 | 39815 ft | 488 kts | 205° |
| 2026-05-07 15:30 | 22.81620 | 74.20655 | 39805 ft | 488 kts | 205° |
| 2026-05-07 15:31 | 22.75235 | 74.18145 | 39804 ft | 488 kts | 205° |
| 2026-05-07 15:31 | 22.68847 | 74.15634 | 39807 ft | 488 kts | 205° |
| 2026-05-07 15:32 | 22.62459 | 74.13127 | 39789 ft | 488 kts | 205° |
| 2026-05-07 15:32 | 22.56073 | 74.10633 | 39808 ft | 487 kts | 204° |
| 2026-05-07 15:33 | 22.49696 | 74.08140 | 39806 ft | 487 kts | 205° |
| 2026-05-07 15:33 | 22.43319 | 74.05650 | 39794 ft | 487 kts | 205° |
| 2026-05-07 15:34 | 22.36945 | 74.03164 | 39796 ft | 487 kts | 204° |
| 2026-05-07 15:34 | 22.30568 | 74.00680 | 39795 ft | 487 kts | 204° |
| 2026-05-07 15:35 | 22.24235 | 73.98214 | 39805 ft | 487 kts | 204° |
| 2026-05-07 15:35 | 22.17860 | 73.95738 | 39804 ft | 487 kts | 204° |
| 2026-05-07 15:36 | 22.11483 | 73.93261 | 39805 ft | 487 kts | 204° |
| 2026-05-07 15:36 | 22.05107 | 73.90785 | 39799 ft | 487 kts | 204° |
| 2026-05-07 15:37 | 21.98728 | 73.88312 | 39812 ft | 487 kts | 204° |
| 2026-05-07 15:37 | 21.92346 | 73.85840 | 39809 ft | 488 kts | 204° |
| 2026-05-07 15:38 | 21.85962 | 73.83369 | 39821 ft | 488 kts | 204° |
| 2026-05-07 15:38 | 21.79572 | 73.80899 | 39824 ft | 488 kts | 204° |
| 2026-05-07 15:39 | 21.73186 | 73.78432 | 39816 ft | 488 kts | 204° |
| 2026-05-07 15:39 | 21.66795 | 73.75966 | 39816 ft | 488 kts | 204° |
| 2026-05-07 15:40 | 21.60406 | 73.73503 | 39817 ft | 488 kts | 204° |
| 2026-05-07 15:40 | 21.54005 | 73.71037 | 39820 ft | 489 kts | 204° |
| 2026-05-07 15:41 | 21.47604 | 73.68575 | 39821 ft | 489 kts | 204° |
| 2026-05-07 15:41 | 21.41200 | 73.66113 | 39821 ft | 489 kts | 204° |
| 2026-05-07 15:42 | 21.34187 | 73.63421 | 39817 ft | 489 kts | 203° |
| 2026-05-07 15:42 | 21.27776 | 73.60962 | 39813 ft | 490 kts | 203° |
| 2026-05-07 15:43 | 21.22444 | 73.58918 | 39823 ft | 490 kts | 203° |
| 2026-05-07 15:43 | 21.16035 | 73.56459 | 39823 ft | 489 kts | 203° |
| 2026-05-07 15:44 | 21.09575 | 73.54124 | 39693 ft | 490 kts | 200° |
| 2026-05-07 15:44 | 21.06320 | 73.53059 | 39123 ft | 489 kts | 201° |
| 2026-05-07 15:44 | 21.03381 | 73.52093 | 38539 ft | 490 kts | 201° |
| 2026-05-07 15:45 | 21.00135 | 73.51016 | 37790 ft | 491 kts | 201° |
| 2026-05-07 15:45 | 20.96880 | 73.49930 | 37109 ft | 490 kts | 201° |
| 2026-05-07 15:45 | 20.93669 | 73.48856 | 36443 ft | 490 kts | 201° |
| 2026-05-07 15:45 | 20.89316 | 73.47398 | 35491 ft | 490 kts | 201° |
| 2026-05-07 15:46 | 20.83901 | 73.45581 | 34297 ft | 492 kts | 201° |
| 2026-05-07 15:46 | 20.80618 | 73.44479 | 33426 ft | 496 kts | 201° |
| 2026-05-07 15:46 | 20.77319 | 73.43373 | 32513 ft | 499 kts | 201° |
| 2026-05-07 15:47 | 20.73997 | 73.42260 | 31623 ft | 502 kts | 201° |
| 2026-05-07 15:47 | 20.70650 | 73.41139 | 30723 ft | 506 kts | 201° |
| 2026-05-07 15:47 | 20.67276 | 73.40008 | 29731 ft | 511 kts | 201° |
| 2026-05-07 15:47 | 20.63867 | 73.38868 | 28763 ft | 514 kts | 201° |
| 2026-05-07 15:48 | 20.60460 | 73.37735 | 28012 ft | 511 kts | 201° |
| 2026-05-07 15:48 | 20.57079 | 73.36605 | 27277 ft | 509 kts | 201° |
| 2026-05-07 15:48 | 20.53709 | 73.35477 | 26549 ft | 506 kts | 200° |
| 2026-05-07 15:48 | 20.50355 | 73.34356 | 25810 ft | 504 kts | 200° |
| 2026-05-07 15:49 | 20.47014 | 73.33240 | 25079 ft | 502 kts | 200° |
| 2026-05-07 15:49 | 20.43683 | 73.32128 | 24356 ft | 500 kts | 200° |
| 2026-05-07 15:49 | 20.40367 | 73.31021 | 23622 ft | 499 kts | 200° |
| 2026-05-07 15:49 | 20.37088 | 73.29929 | 22780 ft | 486 kts | 200° |
| 2026-05-07 15:50 | 20.33917 | 73.28875 | 22051 ft | 468 kts | 199° |
| 2026-05-07 15:50 | 20.32157 | 73.28290 | 21646 ft | 458 kts | 199° |
| 2026-05-07 15:51 | 20.29729 | 73.27481 | 21107 ft | 450 kts | 199° |
| 2026-05-07 15:51 | 20.29480 | 73.27398 | 21050 ft | 450 kts | 199° |
| 2026-05-07 15:51 | 20.27723 | 73.26812 | 20656 ft | 449 kts | 199° |
| 2026-05-07 15:52 | 20.24754 | 73.25822 | 20163 ft | 442 kts | 198° |
| 2026-05-07 15:52 | 20.21920 | 73.24905 | 20023 ft | 410 kts | 198° |
| 2026-05-07 15:52 | 20.19240 | 73.24062 | 19866 ft | 395 kts | 198° |
| 2026-05-07 15:52 | 20.16643 | 73.23243 | 19683 ft | 383 kts | 197° |
| 2026-05-07 15:53 | 20.14124 | 73.22448 | 19452 ft | 372 kts | 197° |
| 2026-05-07 15:53 | 20.11690 | 73.21678 | 19259 ft | 361 kts | 197° |
| 2026-05-07 15:53 | 20.09307 | 73.20924 | 19080 ft | 351 kts | 197° |
| 2026-05-07 15:53 | 20.06992 | 73.20192 | 18801 ft | 344 kts | 197° |
| 2026-05-07 15:54 | 20.04697 | 73.19547 | 18529 ft | 337 kts | 190° |
| 2026-05-07 15:54 | 20.02388 | 73.19243 | 18219 ft | 333 kts | 185° |
| 2026-05-07 15:54 | 20.00090 | 73.19048 | 17784 ft | 331 kts | 184° |
| 2026-05-07 15:54 | 19.97796 | 73.18963 | 17341 ft | 329 kts | 180° |
| 2026-05-07 15:55 | 19.95513 | 73.18960 | 16913 ft | 327 kts | 180° |
| 2026-05-07 15:55 | 19.93284 | 73.18859 | 16493 ft | 324 kts | 186° |
| 2026-05-07 15:55 | 19.91051 | 73.18555 | 16065 ft | 322 kts | 187° |
| 2026-05-07 15:55 | 19.88831 | 73.18263 | 15693 ft | 319 kts | 186° |
| 2026-05-07 15:56 | 19.86655 | 73.18016 | 15460 ft | 312 kts | 185° |
| 2026-05-07 15:56 | 19.84498 | 73.17796 | 15001 ft | 313 kts | 184° |
| 2026-05-07 15:56 | 19.82325 | 73.17591 | 14536 ft | 313 kts | 184° |
| 2026-05-07 15:56 | 19.80159 | 73.17397 | 14132 ft | 311 kts | 184° |
| 2026-05-07 15:57 | 19.78009 | 73.17210 | 13740 ft | 309 kts | 183° |
| 2026-05-07 15:57 | 19.75873 | 73.17026 | 13313 ft | 307 kts | 183° |
| 2026-05-07 15:57 | 19.73745 | 73.16845 | 12851 ft | 306 kts | 184° |
| 2026-05-07 15:57 | 19.71628 | 73.16667 | 12407 ft | 305 kts | 184° |
| 2026-05-07 15:58 | 19.69522 | 73.16489 | 11971 ft | 303 kts | 184° |
| 2026-05-07 15:58 | 19.67425 | 73.16312 | 11549 ft | 301 kts | 184° |
| 2026-05-07 15:58 | 19.65345 | 73.16136 | 11120 ft | 299 kts | 184° |
| 2026-05-07 15:58 | 19.63272 | 73.15961 | 10707 ft | 298 kts | 185° |
| 2026-05-07 15:59 | 19.61207 | 73.15787 | 10308 ft | 296 kts | 185° |
| 2026-05-07 15:59 | 19.59174 | 73.15616 | 10067 ft | 288 kts | 185° |
| 2026-05-07 15:59 | 19.57208 | 73.15450 | 9887 ft | 279 kts | 185° |
| 2026-05-07 15:59 | 19.55293 | 73.15289 | 9601 ft | 274 kts | 185° |
| 2026-05-07 16:00 | 19.53401 | 73.15129 | 9224 ft | 272 kts | 185° |
| 2026-05-07 16:00 | 19.51516 | 73.14971 | 8832 ft | 271 kts | 185° |
| 2026-05-07 16:00 | 19.49634 | 73.14887 | 8442 ft | 270 kts | 182° |
| 2026-05-07 16:00 | 19.47757 | 73.14860 | 8066 ft | 270 kts | 182° |
| 2026-05-07 16:01 | 19.45881 | 73.14836 | 7667 ft | 270 kts | 182° |
| 2026-05-07 16:01 | 19.43969 | 73.14816 | 7008 ft | 281 kts | 182° |
| 2026-05-07 16:01 | 19.42016 | 73.14802 | 6685 ft | 277 kts | 181° |
| 2026-05-07 16:01 | 19.40115 | 73.14792 | 6454 ft | 270 kts | 182° |
| 2026-05-07 16:02 | 19.38244 | 73.14786 | 6126 ft | 268 kts | 182° |
| 2026-05-07 16:02 | 19.36384 | 73.14780 | 5770 ft | 267 kts | 181° |
| 2026-05-07 16:02 | 19.34534 | 73.14768 | 5399 ft | 265 kts | 181° |
| 2026-05-07 16:02 | 19.32692 | 73.14748 | 5047 ft | 264 kts | 181° |
| 2026-05-07 16:03 | 19.30860 | 73.14714 | 4711 ft | 263 kts | 181° |
| 2026-05-07 16:03 | 19.29041 | 73.14674 | 4368 ft | 261 kts | 181° |
| 2026-05-07 16:03 | 19.27235 | 73.14628 | 4153 ft | 259 kts | 182° |
| 2026-05-07 16:03 | 19.25430 | 73.14581 | 4065 ft | 259 kts | 181° |
| 2026-05-07 16:04 | 19.23629 | 73.14529 | 3955 ft | 259 kts | 181° |
| 2026-05-07 16:04 | 19.21833 | 73.14475 | 3820 ft | 258 kts | 182° |
| 2026-05-07 16:04 | 19.20037 | 73.14424 | 3714 ft | 258 kts | 181° |
| 2026-05-07 16:04 | 19.18250 | 73.14371 | 3570 ft | 257 kts | 181° |
| 2026-05-07 16:05 | 19.16492 | 73.14315 | 3396 ft | 256 kts | 182° |
| 2026-05-07 16:05 | 19.14724 | 73.14084 | 3065 ft | 255 kts | 187° |
| 2026-05-07 16:05 | 19.12993 | 73.13757 | 2951 ft | 253 kts | 200° |
| 2026-05-07 16:05 | 19.11534 | 73.12706 | 2965 ft | 251 kts | 229° |
| 2026-05-07 16:06 | 19.10540 | 73.11259 | 2917 ft | 239 kts | 239° |
| 2026-05-07 16:06 | 19.09708 | 73.09810 | 2911 ft | 222 kts | 242° |
| 2026-05-07 16:06 | 19.09225 | 73.08333 | 2901 ft | 205 kts | 263° |
| 2026-05-07 16:06 | 19.09152 | 73.06853 | 2914 ft | 200 kts | 271° |
| 2026-05-07 16:07 | 19.09146 | 73.05412 | 2903 ft | 189 kts | 270° |
| 2026-05-07 16:07 | 19.09128 | 73.04068 | 2886 ft | 180 kts | 270° |
| 2026-05-07 16:07 | 19.09098 | 73.02753 | 2703 ft | 178 kts | 270° |
| 2026-05-07 16:07 | 19.09072 | 73.01448 | 2465 ft | 177 kts | 271° |
| 2026-05-07 16:08 | 19.09056 | 73.00148 | 2229 ft | 177 kts | 271° |
| 2026-05-07 16:08 | 19.09038 | 72.98867 | 2008 ft | 170 kts | 271° |
| 2026-05-07 16:08 | 19.09021 | 72.97659 | 1783 ft | 159 kts | 270° |
| 2026-05-07 16:08 | 19.09005 | 72.96525 | 1583 ft | 149 kts | 270° |
| 2026-05-07 16:09 | 19.08990 | 72.95470 | 1400 ft | 139 kts | 271° |
| 2026-05-07 16:09 | 19.08977 | 72.94465 | 1221 ft | 135 kts | 271° |
| 2026-05-07 16:09 | 19.08964 | 72.93474 | 1051 ft | 135 kts | 270° |
| 2026-05-07 16:09 | 19.08936 | 72.92485 | 888 ft | 135 kts | 270° |
| 2026-05-07 16:10 | 19.08929 | 72.91501 | 754 ft | 133 kts | 272° |
| 2026-05-07 16:10 | 19.08939 | 72.90533 | 631 ft | 133 kts | 271° |
| 2026-05-07 16:10 | 19.08916 | 72.89549 | 446 ft | 134 kts | 269° |
| 2026-05-07 16:10 | 19.08888 | 72.88594 | 257 ft | 128 kts | 271° |
| 2026-05-07 16:11 | 19.08886 | 72.87647 | 88 ft | 129 kts | 270° |
| 2026-05-07 16:11 | 19.08872 | 72.86754 | 55 ft | 107 kts | 269° |
| 2026-05-07 16:11 | 19.08862 | 72.86069 | 53 ft | 80 kts | 269° |
| 2026-05-07 16:11 | 19.08871 | 72.85668 | 48 ft | 26 kts | 290° |
| 2026-05-07 16:12 | 19.08937 | 72.85520 | 50 ft | 16 kts | 295° |
| 2026-05-07 16:12 | 19.08960 | 72.85481 | 52 ft | 2 kts | 321° |
| 2026-05-07 16:12 | 19.08981 | 72.85477 | 49 ft | 4 kts | 356° |
| 2026-05-07 16:12 | 19.09013 | 72.85494 | 51 ft | 7 kts | 44° |
| 2026-05-07 16:13 | 19.09026 | 72.85547 | 50 ft | 9 kts | 89° |
| 2026-05-07 16:13 | 19.09027 | 72.85628 | 49 ft | 13 kts | 89° |
| 2026-05-07 16:13 | 19.09028 | 72.85735 | 55 ft | 16 kts | 89° |
| 2026-05-07 16:13 | 19.09030 | 72.85866 | 55 ft | 19 kts | 89° |
| 2026-05-07 16:14 | 19.09032 | 72.86017 | 55 ft | 21 kts | 90° |
| 2026-05-07 16:14 | 19.09034 | 72.86180 | 55 ft | 24 kts | 89° |
| 2026-05-07 16:14 | 19.09037 | 72.86318 | 55 ft | 17 kts | 89° |
| 2026-05-07 16:14 | 19.09038 | 72.86453 | 50 ft | 19 kts | 90° |
| 2026-05-07 16:15 | 19.09040 | 72.86592 | 50 ft | 20 kts | 89° |
| 2026-05-07 16:15 | 19.09042 | 72.86714 | 51 ft | 14 kts | 89° |
| 2026-05-07 16:15 | 19.09077 | 72.86808 | 48 ft | 15 kts | 41° |
| 2026-05-07 16:15 | 19.09135 | 72.86899 | 52 ft | 16 kts | 97° |
| 2026-05-07 16:16 | 19.09133 | 72.87020 | 52 ft | 18 kts | 88° |
| 2026-05-07 16:16 | 19.09171 | 72.87080 | 52 ft | 9 kts | 9° |
| 2026-05-07 16:16 | 19.09225 | 72.87107 | 48 ft | 8 kts | 72° |
| 2026-05-07 16:16 | 19.09251 | 72.87142 | 49 ft | 6 kts | 24° |
| 2026-05-07 16:17 | 19.09296 | 72.87146 | 50 ft | 3 kts | 358° |
| 2026-05-07 16:17 | 19.09311 | 72.87146 | 55 ft | 0 kts | 359° |
| 2026-05-07 16:17 | 19.09312 | 72.87146 | 55 ft | 0 kts | 359° |